sensor_id;sensor_type;location;lat;lon;timestamp;P1;durP1;ratioP1;P2;durP2;ratioP2
9364;SDS011;4722;49.340;9.800;2024-01-07T00:02:20;9.63;;;5.18;;
9364;SDS011;4722;49.340;9.800;2024-01-07T00:04:46;10.13;;;4.80;;
9364;SDS011;4722;49.340;9.800;2024-01-07T00:07:12;7.72;;;4.03;;
9364;SDS011;4722;49.340;9.800;2024-01-07T00:09:38;6.47;;;4.35;;
9364;SDS011;4722;49.340;9.800;2024-01-07T00:12:04;11.02;;;4.25;;
9364;SDS011;4722;49.340;9.800;2024-01-07T00:14:30;14.13;;;4.45;;
9364;SDS011;4722;49.340;9.800;2024-01-07T00:16:56;8.32;;;3.75;;
9364;SDS011;4722;49.340;9.800;2024-01-07T00:19:22;8.90;;;3.53;;
9364;SDS011;4722;49.340;9.800;2024-01-07T00:21:48;10.80;;;5.63;;
9364;SDS011;4722;49.340;9.800;2024-01-07T00:24:15;14.70;;;4.72;;
9364;SDS011;4722;49.340;9.800;2024-01-07T00:26:41;8.48;;;4.65;;
9364;SDS011;4722;49.340;9.800;2024-01-07T00:29:07;9.57;;;5.47;;
9364;SDS011;4722;49.340;9.800;2024-01-07T00:31:33;8.15;;;4.30;;
9364;SDS011;4722;49.340;9.800;2024-01-07T00:33:59;6.72;;;3.53;;
9364;SDS011;4722;49.340;9.800;2024-01-07T00:36:26;9.23;;;4.22;;
9364;SDS011;4722;49.340;9.800;2024-01-07T00:38:52;6.15;;;4.15;;
9364;SDS011;4722;49.340;9.800;2024-01-07T00:41:18;10.05;;;4.45;;
9364;SDS011;4722;49.340;9.800;2024-01-07T00:43:44;8.30;;;5.57;;
9364;SDS011;4722;49.340;9.800;2024-01-07T00:46:12;8.32;;;4.60;;
9364;SDS011;4722;49.340;9.800;2024-01-07T00:48:38;11.27;;;4.50;;
9364;SDS011;4722;49.340;9.800;2024-01-07T00:51:04;8.15;;;4.55;;
9364;SDS011;4722;49.340;9.800;2024-01-07T00:53:30;10.70;;;4.25;;
9364;SDS011;4722;49.340;9.800;2024-01-07T00:55:56;6.90;;;3.80;;
9364;SDS011;4722;49.340;9.800;2024-01-07T00:58:22;10.52;;;5.28;;
9364;SDS011;4722;49.340;9.800;2024-01-07T01:00:48;17.67;;;7.43;;
9364;SDS011;4722;49.340;9.800;2024-01-07T01:03:14;13.50;;;6.32;;
9364;SDS011;4722;49.340;9.800;2024-01-07T01:05:40;20.80;;;7.45;;
9364;SDS011;4722;49.340;9.800;2024-01-07T01:08:06;13.45;;;5.65;;
9364;SDS011;4722;49.340;9.800;2024-01-07T01:10:32;11.40;;;5.78;;
9364;SDS011;4722;49.340;9.800;2024-01-07T01:12:58;11.88;;;5.68;;
9364;SDS011;4722;49.340;9.800;2024-01-07T01:15:24;9.50;;;4.88;;
9364;SDS011;4722;49.340;9.800;2024-01-07T01:17:50;8.48;;;4.93;;
9364;SDS011;4722;49.340;9.800;2024-01-07T01:20:16;10.52;;;5.47;;
9364;SDS011;4722;49.340;9.800;2024-01-07T01:22:42;9.63;;;4.95;;
9364;SDS011;4722;49.340;9.800;2024-01-07T01:25:08;10.07;;;5.82;;
9364;SDS011;4722;49.340;9.800;2024-01-07T01:27:35;10.68;;;5.32;;
9364;SDS011;4722;49.340;9.800;2024-01-07T01:30:01;9.60;;;5.68;;
9364;SDS011;4722;49.340;9.800;2024-01-07T01:32:27;10.07;;;5.25;;
9364;SDS011;4722;49.340;9.800;2024-01-07T01:34:53;10.10;;;5.50;;
9364;SDS011;4722;49.340;9.800;2024-01-07T01:37:18;10.00;;;5.32;;
9364;SDS011;4722;49.340;9.800;2024-01-07T01:39:44;9.85;;;4.72;;
9364;SDS011;4722;49.340;9.800;2024-01-07T01:42:10;10.63;;;5.22;;
9364;SDS011;4722;49.340;9.800;2024-01-07T01:44:37;11.43;;;6.00;;
9364;SDS011;4722;49.340;9.800;2024-01-07T01:47:03;10.75;;;5.35;;
9364;SDS011;4722;49.340;9.800;2024-01-07T01:49:30;12.73;;;4.93;;
9364;SDS011;4722;49.340;9.800;2024-01-07T01:51:56;17.98;;;6.32;;
9364;SDS011;4722;49.340;9.800;2024-01-07T01:54:22;12.40;;;5.78;;
9364;SDS011;4722;49.340;9.800;2024-01-07T01:56:49;10.43;;;4.32;;
9364;SDS011;4722;49.340;9.800;2024-01-07T01:59:15;14.10;;;5.68;;
9364;SDS011;4722;49.340;9.800;2024-01-07T02:01:41;12.40;;;6.40;;
9364;SDS011;4722;49.340;9.800;2024-01-07T02:04:08;8.40;;;5.57;;
9364;SDS011;4722;49.340;9.800;2024-01-07T02:06:34;8.75;;;5.72;;
9364;SDS011;4722;49.340;9.800;2024-01-07T02:09:00;10.65;;;5.72;;
9364;SDS011;4722;49.340;9.800;2024-01-07T02:11:26;16.17;;;6.15;;
9364;SDS011;4722;49.340;9.800;2024-01-07T02:13:53;9.10;;;5.28;;
9364;SDS011;4722;49.340;9.800;2024-01-07T02:16:19;9.30;;;5.45;;
9364;SDS011;4722;49.340;9.800;2024-01-07T02:18:45;13.52;;;5.97;;
9364;SDS011;4722;49.340;9.800;2024-01-07T02:21:12;11.50;;;6.20;;
9364;SDS011;4722;49.340;9.800;2024-01-07T02:23:39;12.13;;;6.53;;
9364;SDS011;4722;49.340;9.800;2024-01-07T02:26:05;8.50;;;5.28;;
9364;SDS011;4722;49.340;9.800;2024-01-07T02:28:31;9.65;;;5.43;;
9364;SDS011;4722;49.340;9.800;2024-01-07T02:30:57;13.43;;;6.00;;
9364;SDS011;4722;49.340;9.800;2024-01-07T02:33:23;9.85;;;5.35;;
9364;SDS011;4722;49.340;9.800;2024-01-07T02:35:49;13.48;;;6.07;;
9364;SDS011;4722;49.340;9.800;2024-01-07T02:38:15;11.20;;;6.63;;
9364;SDS011;4722;49.340;9.800;2024-01-07T02:40:41;10.75;;;5.75;;
9364;SDS011;4722;49.340;9.800;2024-01-07T02:43:07;11.75;;;6.45;;
9364;SDS011;4722;49.340;9.800;2024-01-07T02:45:33;12.77;;;6.13;;
9364;SDS011;4722;49.340;9.800;2024-01-07T02:47:59;14.05;;;6.60;;
9364;SDS011;4722;49.340;9.800;2024-01-07T02:50:25;13.70;;;6.38;;
9364;SDS011;4722;49.340;9.800;2024-01-07T02:52:51;12.40;;;5.90;;
9364;SDS011;4722;49.340;9.800;2024-01-07T02:55:17;11.15;;;6.13;;
9364;SDS011;4722;49.340;9.800;2024-01-07T02:57:43;9.55;;;5.88;;
9364;SDS011;4722;49.340;9.800;2024-01-07T03:00:09;14.93;;;6.53;;
9364;SDS011;4722;49.340;9.800;2024-01-07T03:02:36;13.75;;;6.65;;
9364;SDS011;4722;49.340;9.800;2024-01-07T03:05:02;15.57;;;7.20;;
9364;SDS011;4722;49.340;9.800;2024-01-07T03:07:28;20.48;;;7.97;;
9364;SDS011;4722;49.340;9.800;2024-01-07T03:09:55;13.43;;;7.35;;
9364;SDS011;4722;49.340;9.800;2024-01-07T03:12:21;15.55;;;7.35;;
9364;SDS011;4722;49.340;9.800;2024-01-07T03:14:48;14.13;;;7.40;;
9364;SDS011;4722;49.340;9.800;2024-01-07T03:17:14;12.00;;;6.35;;
9364;SDS011;4722;49.340;9.800;2024-01-07T03:19:42;14.98;;;7.28;;
9364;SDS011;4722;49.340;9.800;2024-01-07T03:22:08;10.35;;;6.38;;
9364;SDS011;4722;49.340;9.800;2024-01-07T03:24:34;15.75;;;6.68;;
9364;SDS011;4722;49.340;9.800;2024-01-07T03:26:59;13.30;;;6.97;;
9364;SDS011;4722;49.340;9.800;2024-01-07T03:29:25;18.92;;;7.30;;
9364;SDS011;4722;49.340;9.800;2024-01-07T03:31:51;11.32;;;5.78;;
9364;SDS011;4722;49.340;9.800;2024-01-07T03:34:18;12.57;;;6.93;;
9364;SDS011;4722;49.340;9.800;2024-01-07T03:36:44;13.77;;;7.63;;
9364;SDS011;4722;49.340;9.800;2024-01-07T03:39:10;11.32;;;6.93;;
9364;SDS011;4722;49.340;9.800;2024-01-07T03:41:36;18.40;;;7.00;;
9364;SDS011;4722;49.340;9.800;2024-01-07T03:44:02;22.98;;;6.90;;
9364;SDS011;4722;49.340;9.800;2024-01-07T03:46:28;11.02;;;6.53;;
9364;SDS011;4722;49.340;9.800;2024-01-07T03:48:54;17.92;;;7.20;;
9364;SDS011;4722;49.340;9.800;2024-01-07T03:51:20;16.88;;;7.65;;
9364;SDS011;4722;49.340;9.800;2024-01-07T03:53:47;15.75;;;6.82;;
9364;SDS011;4722;49.340;9.800;2024-01-07T03:56:13;13.68;;;7.43;;
9364;SDS011;4722;49.340;9.800;2024-01-07T03:58:39;17.95;;;8.18;;
9364;SDS011;4722;49.340;9.800;2024-01-07T04:01:05;18.42;;;7.95;;
9364;SDS011;4722;49.340;9.800;2024-01-07T04:03:31;13.00;;;8.00;;
9364;SDS011;4722;49.340;9.800;2024-01-07T04:05:57;15.00;;;7.85;;
9364;SDS011;4722;49.340;9.800;2024-01-07T04:08:23;16.73;;;7.20;;
9364;SDS011;4722;49.340;9.800;2024-01-07T04:10:49;21.00;;;7.75;;
9364;SDS011;4722;49.340;9.800;2024-01-07T04:13:15;17.63;;;7.82;;
9364;SDS011;4722;49.340;9.800;2024-01-07T04:15:41;21.60;;;10.52;;
9364;SDS011;4722;49.340;9.800;2024-01-07T04:18:07;14.98;;;8.32;;
9364;SDS011;4722;49.340;9.800;2024-01-07T04:20:33;16.77;;;8.88;;
9364;SDS011;4722;49.340;9.800;2024-01-07T04:22:59;16.05;;;7.18;;
9364;SDS011;4722;49.340;9.800;2024-01-07T04:25:25;21.67;;;8.68;;
9364;SDS011;4722;49.340;9.800;2024-01-07T04:27:51;21.95;;;8.32;;
9364;SDS011;4722;49.340;9.800;2024-01-07T04:30:17;17.77;;;8.02;;
9364;SDS011;4722;49.340;9.800;2024-01-07T04:32:43;19.15;;;8.00;;
9364;SDS011;4722;49.340;9.800;2024-01-07T04:35:09;18.70;;;8.95;;
9364;SDS011;4722;49.340;9.800;2024-01-07T04:37:35;16.88;;;7.68;;
9364;SDS011;4722;49.340;9.800;2024-01-07T04:40:01;16.63;;;7.65;;
9364;SDS011;4722;49.340;9.800;2024-01-07T04:42:29;16.70;;;7.80;;
9364;SDS011;4722;49.340;9.800;2024-01-07T04:44:54;19.85;;;8.75;;
9364;SDS011;4722;49.340;9.800;2024-01-07T04:47:30;19.00;;;8.00;;
9364;SDS011;4722;49.340;9.800;2024-01-07T04:49:59;10.38;;;5.47;;
9364;SDS011;4722;49.340;9.800;2024-01-07T04:52:26;18.42;;;7.13;;
9364;SDS011;4722;49.340;9.800;2024-01-07T04:54:52;18.25;;;5.95;;
9364;SDS011;4722;49.340;9.800;2024-01-07T04:57:19;14.63;;;6.13;;
9364;SDS011;4722;49.340;9.800;2024-01-07T04:59:45;13.23;;;6.40;;
9364;SDS011;4722;49.340;9.800;2024-01-07T05:02:11;9.38;;;4.85;;
9364;SDS011;4722;49.340;9.800;2024-01-07T05:04:37;10.35;;;4.78;;
9364;SDS011;4722;49.340;9.800;2024-01-07T05:07:03;10.90;;;5.38;;
9364;SDS011;4722;49.340;9.800;2024-01-07T05:09:29;8.50;;;5.13;;
9364;SDS011;4722;49.340;9.800;2024-01-07T05:11:56;11.77;;;5.63;;
9364;SDS011;4722;49.340;9.800;2024-01-07T05:14:22;10.85;;;5.28;;
9364;SDS011;4722;49.340;9.800;2024-01-07T05:16:48;11.15;;;5.72;;
9364;SDS011;4722;49.340;9.800;2024-01-07T05:19:14;11.02;;;4.30;;
9364;SDS011;4722;49.340;9.800;2024-01-07T05:21:40;11.77;;;5.57;;
9364;SDS011;4722;49.340;9.800;2024-01-07T05:24:06;11.40;;;4.60;;
9364;SDS011;4722;49.340;9.800;2024-01-07T05:26:39;14.25;;;4.53;;
9364;SDS011;4722;49.340;9.800;2024-01-07T05:29:05;10.25;;;4.45;;
9364;SDS011;4722;49.340;9.800;2024-01-07T05:31:31;8.52;;;4.20;;
9364;SDS011;4722;49.340;9.800;2024-01-07T05:33:58;6.18;;;3.75;;
9364;SDS011;4722;49.340;9.800;2024-01-07T05:36:24;8.15;;;3.85;;
9364;SDS011;4722;49.340;9.800;2024-01-07T05:38:50;5.03;;;2.85;;
9364;SDS011;4722;49.340;9.800;2024-01-07T05:41:16;10.60;;;4.30;;
9364;SDS011;4722;49.340;9.800;2024-01-07T05:43:42;10.25;;;4.40;;
9364;SDS011;4722;49.340;9.800;2024-01-07T05:46:08;7.30;;;3.17;;
9364;SDS011;4722;49.340;9.800;2024-01-07T05:48:47;8.65;;;4.20;;
9364;SDS011;4722;49.340;9.800;2024-01-07T05:51:15;7.30;;;3.67;;
9364;SDS011;4722;49.340;9.800;2024-01-07T05:53:42;7.10;;;3.20;;
9364;SDS011;4722;49.340;9.800;2024-01-07T05:56:08;8.35;;;4.00;;
9364;SDS011;4722;49.340;9.800;2024-01-07T05:58:34;8.07;;;3.65;;
9364;SDS011;4722;49.340;9.800;2024-01-07T06:01:00;9.13;;;4.38;;
9364;SDS011;4722;49.340;9.800;2024-01-07T06:03:26;9.38;;;4.22;;
9364;SDS011;4722;49.340;9.800;2024-01-07T06:05:52;4.80;;;2.78;;
9364;SDS011;4722;49.340;9.800;2024-01-07T06:08:18;6.18;;;2.80;;
9364;SDS011;4722;49.340;9.800;2024-01-07T06:10:44;15.20;;;3.75;;
9364;SDS011;4722;49.340;9.800;2024-01-07T06:13:10;7.72;;;3.75;;
9364;SDS011;4722;49.340;9.800;2024-01-07T06:15:36;7.72;;;3.35;;
9364;SDS011;4722;49.340;9.800;2024-01-07T06:18:02;6.63;;;3.40;;
9364;SDS011;4722;49.340;9.800;2024-01-07T06:20:28;4.97;;;2.70;;
9364;SDS011;4722;49.340;9.800;2024-01-07T06:22:55;5.68;;;2.20;;
9364;SDS011;4722;49.340;9.800;2024-01-07T06:25:21;8.07;;;4.05;;
9364;SDS011;4722;49.340;9.800;2024-01-07T06:27:48;7.82;;;3.70;;
9364;SDS011;4722;49.340;9.800;2024-01-07T06:30:14;7.65;;;2.95;;
9364;SDS011;4722;49.340;9.800;2024-01-07T06:32:41;6.43;;;3.40;;
9364;SDS011;4722;49.340;9.800;2024-01-07T06:35:07;5.63;;;2.85;;
9364;SDS011;4722;49.340;9.800;2024-01-07T06:37:34;4.78;;;1.88;;
9364;SDS011;4722;49.340;9.800;2024-01-07T06:40:00;7.57;;;3.33;;
9364;SDS011;4722;49.340;9.800;2024-01-07T06:42:25;6.80;;;2.40;;
9364;SDS011;4722;49.340;9.800;2024-01-07T06:44:52;4.78;;;2.38;;
9364;SDS011;4722;49.340;9.800;2024-01-07T06:47:18;6.25;;;2.90;;
9364;SDS011;4722;49.340;9.800;2024-01-07T06:49:45;5.05;;;2.45;;
9364;SDS011;4722;49.340;9.800;2024-01-07T06:52:11;4.55;;;2.10;;
9364;SDS011;4722;49.340;9.800;2024-01-07T06:54:37;6.28;;;2.67;;
9364;SDS011;4722;49.340;9.800;2024-01-07T06:57:04;4.00;;;2.28;;
9364;SDS011;4722;49.340;9.800;2024-01-07T06:59:30;5.65;;;2.13;;
9364;SDS011;4722;49.340;9.800;2024-01-07T07:01:56;4.70;;;2.30;;
9364;SDS011;4722;49.340;9.800;2024-01-07T07:04:22;6.65;;;2.38;;
9364;SDS011;4722;49.340;9.800;2024-01-07T07:06:48;8.30;;;2.58;;
9364;SDS011;4722;49.340;9.800;2024-01-07T07:09:14;8.15;;;2.50;;
9364;SDS011;4722;49.340;9.800;2024-01-07T07:11:40;3.55;;;1.73;;
9364;SDS011;4722;49.340;9.800;2024-01-07T07:14:07;5.97;;;2.85;;
9364;SDS011;4722;49.340;9.800;2024-01-07T07:16:33;3.42;;;1.90;;
9364;SDS011;4722;49.340;9.800;2024-01-07T07:18:59;8.45;;;1.90;;
9364;SDS011;4722;49.340;9.800;2024-01-07T07:21:25;4.90;;;1.88;;
9364;SDS011;4722;49.340;9.800;2024-01-07T07:23:52;5.55;;;2.63;;
9364;SDS011;4722;49.340;9.800;2024-01-07T07:26:18;5.68;;;2.47;;
9364;SDS011;4722;49.340;9.800;2024-01-07T07:28:44;3.85;;;1.67;;
9364;SDS011;4722;49.340;9.800;2024-01-07T07:31:13;4.32;;;1.70;;
9364;SDS011;4722;49.340;9.800;2024-01-07T07:33:39;3.70;;;2.03;;
9364;SDS011;4722;49.340;9.800;2024-01-07T07:36:05;4.07;;;2.15;;
9364;SDS011;4722;49.340;9.800;2024-01-07T07:38:31;9.13;;;3.00;;
9364;SDS011;4722;49.340;9.800;2024-01-07T07:40:57;4.30;;;2.08;;
9364;SDS011;4722;49.340;9.800;2024-01-07T07:43:23;6.78;;;2.53;;
9364;SDS011;4722;49.340;9.800;2024-01-07T07:45:50;5.15;;;2.22;;
9364;SDS011;4722;49.340;9.800;2024-01-07T07:48:16;6.72;;;2.28;;
9364;SDS011;4722;49.340;9.800;2024-01-07T07:50:42;8.27;;;2.75;;
9364;SDS011;4722;49.340;9.800;2024-01-07T07:53:08;5.32;;;2.15;;
9364;SDS011;4722;49.340;9.800;2024-01-07T07:55:34;4.35;;;1.58;;
9364;SDS011;4722;49.340;9.800;2024-01-07T07:58:00;3.05;;;1.85;;
9364;SDS011;4722;49.340;9.800;2024-01-07T08:00:26;4.70;;;2.05;;
9364;SDS011;4722;49.340;9.800;2024-01-07T08:02:52;4.72;;;1.95;;
9364;SDS011;4722;49.340;9.800;2024-01-07T08:05:18;4.35;;;2.35;;
9364;SDS011;4722;49.340;9.800;2024-01-07T08:07:44;4.25;;;2.33;;
9364;SDS011;4722;49.340;9.800;2024-01-07T08:10:10;2.83;;;1.85;;
9364;SDS011;4722;49.340;9.800;2024-01-07T08:12:37;6.43;;;2.08;;
9364;SDS011;4722;49.340;9.800;2024-01-07T08:15:05;6.28;;;2.38;;
9364;SDS011;4722;49.340;9.800;2024-01-07T08:17:31;4.05;;;2.45;;
9364;SDS011;4722;49.340;9.800;2024-01-07T08:19:57;6.20;;;3.20;;
9364;SDS011;4722;49.340;9.800;2024-01-07T08:22:23;8.40;;;2.00;;
9364;SDS011;4722;49.340;9.800;2024-01-07T08:24:49;13.32;;;2.45;;
9364;SDS011;4722;49.340;9.800;2024-01-07T08:27:16;6.60;;;2.28;;
9364;SDS011;4722;49.340;9.800;2024-01-07T08:29:43;7.13;;;3.17;;
9364;SDS011;4722;49.340;9.800;2024-01-07T08:32:09;6.32;;;2.40;;
9364;SDS011;4722;49.340;9.800;2024-01-07T08:34:35;10.45;;;2.38;;
9364;SDS011;4722;49.340;9.800;2024-01-07T08:37:02;9.20;;;3.78;;
9364;SDS011;4722;49.340;9.800;2024-01-07T08:39:28;2.55;;;1.80;;
9364;SDS011;4722;49.340;9.800;2024-01-07T08:41:55;5.47;;;2.90;;
9364;SDS011;4722;49.340;9.800;2024-01-07T08:44:21;6.90;;;2.42;;
9364;SDS011;4722;49.340;9.800;2024-01-07T08:46:48;5.13;;;2.22;;
9364;SDS011;4722;49.340;9.800;2024-01-07T08:49:14;5.00;;;2.35;;
9364;SDS011;4722;49.340;9.800;2024-01-07T08:51:39;5.35;;;2.00;;
9364;SDS011;4722;49.340;9.800;2024-01-07T08:54:05;7.20;;;3.15;;
9364;SDS011;4722;49.340;9.800;2024-01-07T08:56:31;6.75;;;2.80;;
9364;SDS011;4722;49.340;9.800;2024-01-07T08:58:57;4.65;;;2.67;;
9364;SDS011;4722;49.340;9.800;2024-01-07T09:01:24;5.55;;;2.90;;
9364;SDS011;4722;49.340;9.800;2024-01-07T09:03:50;6.07;;;2.83;;
9364;SDS011;4722;49.340;9.800;2024-01-07T09:06:16;5.35;;;2.85;;
9364;SDS011;4722;49.340;9.800;2024-01-07T09:08:41;6.50;;;2.50;;
9364;SDS011;4722;49.340;9.800;2024-01-07T09:11:07;5.38;;;2.58;;
9364;SDS011;4722;49.340;9.800;2024-01-07T09:13:36;5.25;;;2.80;;
9364;SDS011;4722;49.340;9.800;2024-01-07T09:16:03;4.78;;;2.45;;
9364;SDS011;4722;49.340;9.800;2024-01-07T09:18:29;6.28;;;2.63;;
9364;SDS011;4722;49.340;9.800;2024-01-07T09:20:55;7.63;;;3.13;;
9364;SDS011;4722;49.340;9.800;2024-01-07T09:23:21;3.53;;;1.85;;
9364;SDS011;4722;49.340;9.800;2024-01-07T09:25:47;10.48;;;3.08;;
9364;SDS011;4722;49.340;9.800;2024-01-07T09:28:14;5.20;;;2.78;;
9364;SDS011;4722;49.340;9.800;2024-01-07T09:30:41;5.28;;;2.75;;
9364;SDS011;4722;49.340;9.800;2024-01-07T09:33:07;5.07;;;2.80;;
9364;SDS011;4722;49.340;9.800;2024-01-07T09:35:33;7.13;;;4.35;;
9364;SDS011;4722;49.340;9.800;2024-01-07T09:38:01;7.20;;;3.03;;
9364;SDS011;4722;49.340;9.800;2024-01-07T09:40:28;7.47;;;2.90;;
9364;SDS011;4722;49.340;9.800;2024-01-07T09:42:55;7.25;;;2.97;;
9364;SDS011;4722;49.340;9.800;2024-01-07T09:45:21;4.68;;;2.78;;
9364;SDS011;4722;49.340;9.800;2024-01-07T09:47:48;6.85;;;3.22;;
9364;SDS011;4722;49.340;9.800;2024-01-07T09:50:14;4.10;;;2.50;;
9364;SDS011;4722;49.340;9.800;2024-01-07T09:52:42;3.90;;;2.08;;
9364;SDS011;4722;49.340;9.800;2024-01-07T09:55:09;5.65;;;2.85;;
9364;SDS011;4722;49.340;9.800;2024-01-07T09:57:36;5.13;;;2.45;;
9364;SDS011;4722;49.340;9.800;2024-01-07T10:00:04;5.55;;;2.75;;
9364;SDS011;4722;49.340;9.800;2024-01-07T10:02:30;5.85;;;3.00;;
9364;SDS011;4722;49.340;9.800;2024-01-07T10:04:56;6.18;;;2.85;;
9364;SDS011;4722;49.340;9.800;2024-01-07T10:07:22;9.60;;;3.65;;
9364;SDS011;4722;49.340;9.800;2024-01-07T10:09:48;5.78;;;2.55;;
9364;SDS011;4722;49.340;9.800;2024-01-07T10:12:14;14.45;;;5.75;;
9364;SDS011;4722;49.340;9.800;2024-01-07T10:14:40;24.08;;;8.98;;
9364;SDS011;4722;49.340;9.800;2024-01-07T10:17:13;10.00;;;4.13;;
9364;SDS011;4722;49.340;9.800;2024-01-07T10:19:41;6.32;;;3.42;;
9364;SDS011;4722;49.340;9.800;2024-01-07T10:22:08;6.80;;;3.10;;
9364;SDS011;4722;49.340;9.800;2024-01-07T10:24:35;7.28;;;3.72;;
9364;SDS011;4722;49.340;9.800;2024-01-07T10:27:05;6.35;;;3.67;;
9364;SDS011;4722;49.340;9.800;2024-01-07T10:29:32;7.72;;;3.22;;
9364;SDS011;4722;49.340;9.800;2024-01-07T10:31:58;3.97;;;2.50;;
9364;SDS011;4722;49.340;9.800;2024-01-07T10:34:26;7.32;;;2.92;;
9364;SDS011;4722;49.340;9.800;2024-01-07T10:36:53;6.53;;;3.10;;
9364;SDS011;4722;49.340;9.800;2024-01-07T10:39:21;5.78;;;2.83;;
9364;SDS011;4722;49.340;9.800;2024-01-07T10:41:48;9.82;;;4.10;;
9364;SDS011;4722;49.340;9.800;2024-01-07T10:44:17;6.32;;;3.55;;
9364;SDS011;4722;49.340;9.800;2024-01-07T10:46:43;9.18;;;3.58;;
9364;SDS011;4722;49.340;9.800;2024-01-07T10:49:13;7.53;;;3.85;;
9364;SDS011;4722;49.340;9.800;2024-01-07T10:51:42;8.57;;;4.10;;
9364;SDS011;4722;49.340;9.800;2024-01-07T10:54:08;9.10;;;3.78;;
9364;SDS011;4722;49.340;9.800;2024-01-07T10:56:45;8.63;;;4.10;;
9364;SDS011;4722;49.340;9.800;2024-01-07T10:59:11;7.90;;;3.10;;
9364;SDS011;4722;49.340;9.800;2024-01-07T11:01:37;5.70;;;4.13;;
9364;SDS011;4722;49.340;9.800;2024-01-07T11:04:06;9.75;;;4.85;;
9364;SDS011;4722;49.340;9.800;2024-01-07T11:11:26;9.38;;;4.30;;
9364;SDS011;4722;49.340;9.800;2024-01-07T11:13:53;12.15;;;5.82;;
9364;SDS011;4722;49.340;9.800;2024-01-07T11:19:03;6.03;;;3.33;;
9364;SDS011;4722;49.340;9.800;2024-01-07T11:21:30;6.18;;;3.47;;
9364;SDS011;4722;49.340;9.800;2024-01-07T11:23:56;7.07;;;4.03;;
9364;SDS011;4722;49.340;9.800;2024-01-07T11:26:22;10.52;;;4.45;;
9364;SDS011;4722;49.340;9.800;2024-01-07T11:28:55;7.05;;;4.47;;
9364;SDS011;4722;49.340;9.800;2024-01-07T11:31:24;9.90;;;4.55;;
9364;SDS011;4722;49.340;9.800;2024-01-07T11:34:08;5.28;;;3.45;;
9364;SDS011;4722;49.340;9.800;2024-01-07T11:36:37;9.60;;;3.90;;
9364;SDS011;4722;49.340;9.800;2024-01-07T11:39:04;10.15;;;4.30;;
9364;SDS011;4722;49.340;9.800;2024-01-07T11:41:33;9.45;;;5.15;;
9364;SDS011;4722;49.340;9.800;2024-01-07T11:44:00;8.02;;;4.10;;
9364;SDS011;4722;49.340;9.800;2024-01-07T11:46:27;6.43;;;3.50;;
9364;SDS011;4722;49.340;9.800;2024-01-07T11:48:54;9.02;;;3.65;;
9364;SDS011;4722;49.340;9.800;2024-01-07T11:51:27;7.60;;;4.13;;
9364;SDS011;4722;49.340;9.800;2024-01-07T11:53:54;7.45;;;4.03;;
9364;SDS011;4722;49.340;9.800;2024-01-07T11:56:20;7.55;;;4.90;;
9364;SDS011;4722;49.340;9.800;2024-01-07T11:58:46;7.28;;;3.63;;
9364;SDS011;4722;49.340;9.800;2024-01-07T12:01:14;8.75;;;3.75;;
9364;SDS011;4722;49.340;9.800;2024-01-07T12:03:41;5.95;;;3.55;;
9364;SDS011;4722;49.340;9.800;2024-01-07T12:06:08;9.93;;;5.32;;
9364;SDS011;4722;49.340;9.800;2024-01-07T12:08:38;10.27;;;5.20;;
9364;SDS011;4722;49.340;9.800;2024-01-07T12:11:04;12.30;;;5.07;;
9364;SDS011;4722;49.340;9.800;2024-01-07T12:13:30;6.30;;;3.95;;
9364;SDS011;4722;49.340;9.800;2024-01-07T12:15:58;9.05;;;4.28;;
9364;SDS011;4722;49.340;9.800;2024-01-07T12:18:24;8.20;;;3.75;;
9364;SDS011;4722;49.340;9.800;2024-01-07T12:20:57;5.95;;;3.47;;
9364;SDS011;4722;49.340;9.800;2024-01-07T12:23:23;8.50;;;3.92;;
9364;SDS011;4722;49.340;9.800;2024-01-07T12:25:50;12.15;;;5.18;;
9364;SDS011;4722;49.340;9.800;2024-01-07T12:28:17;11.60;;;5.47;;
9364;SDS011;4722;49.340;9.800;2024-01-07T12:30:49;12.02;;;5.35;;
9364;SDS011;4722;49.340;9.800;2024-01-07T12:33:16;7.63;;;4.60;;
9364;SDS011;4722;49.340;9.800;2024-01-07T12:35:43;13.68;;;4.88;;
9364;SDS011;4722;49.340;9.800;2024-01-07T12:38:09;9.40;;;3.92;;
9364;SDS011;4722;49.340;9.800;2024-01-07T12:40:35;11.65;;;5.45;;
9364;SDS011;4722;49.340;9.800;2024-01-07T12:43:01;13.55;;;6.15;;
9364;SDS011;4722;49.340;9.800;2024-01-07T12:45:27;13.10;;;5.55;;
9364;SDS011;4722;49.340;9.800;2024-01-07T12:47:53;13.10;;;6.10;;
9364;SDS011;4722;49.340;9.800;2024-01-07T12:50:24;12.95;;;6.13;;
9364;SDS011;4722;49.340;9.800;2024-01-07T12:52:53;8.07;;;4.43;;
9364;SDS011;4722;49.340;9.800;2024-01-07T12:55:18;15.90;;;6.28;;
9364;SDS011;4722;49.340;9.800;2024-01-07T12:57:44;10.85;;;4.63;;
9364;SDS011;4722;49.340;9.800;2024-01-07T13:00:10;11.63;;;4.57;;
9364;SDS011;4722;49.340;9.800;2024-01-07T13:02:36;7.53;;;3.72;;
9364;SDS011;4722;49.340;9.800;2024-01-07T13:05:03;7.20;;;3.67;;
9364;SDS011;4722;49.340;9.800;2024-01-07T13:07:30;12.45;;;5.88;;
9364;SDS011;4722;49.340;9.800;2024-01-07T13:09:56;7.55;;;3.70;;
9364;SDS011;4722;49.340;9.800;2024-01-07T13:12:22;8.10;;;4.10;;
9364;SDS011;4722;49.340;9.800;2024-01-07T13:14:48;7.90;;;4.45;;
9364;SDS011;4722;49.340;9.800;2024-01-07T13:17:14;6.78;;;4.07;;
9364;SDS011;4722;49.340;9.800;2024-01-07T13:19:40;9.30;;;4.22;;
9364;SDS011;4722;49.340;9.800;2024-01-07T13:22:07;8.57;;;3.83;;
9364;SDS011;4722;49.340;9.800;2024-01-07T13:24:33;11.75;;;4.88;;
9364;SDS011;4722;49.340;9.800;2024-01-07T13:26:59;6.20;;;3.95;;
9364;SDS011;4722;49.340;9.800;2024-01-07T13:29:25;5.93;;;3.85;;
9364;SDS011;4722;49.340;9.800;2024-01-07T13:31:51;6.78;;;3.03;;
9364;SDS011;4722;49.340;9.800;2024-01-07T13:34:16;6.85;;;4.47;;
9364;SDS011;4722;49.340;9.800;2024-01-07T13:36:43;12.45;;;5.13;;
9364;SDS011;4722;49.340;9.800;2024-01-07T13:39:09;8.38;;;4.22;;
9364;SDS011;4722;49.340;9.800;2024-01-07T13:41:35;6.25;;;3.65;;
9364;SDS011;4722;49.340;9.800;2024-01-07T13:44:02;9.85;;;4.13;;
9364;SDS011;4722;49.340;9.800;2024-01-07T13:46:28;7.88;;;2.80;;
9364;SDS011;4722;49.340;9.800;2024-01-07T13:48:54;6.70;;;3.30;;
9364;SDS011;4722;49.340;9.800;2024-01-07T13:51:20;9.18;;;4.00;;
9364;SDS011;4722;49.340;9.800;2024-01-07T13:53:46;6.97;;;3.88;;
9364;SDS011;4722;49.340;9.800;2024-01-07T13:56:12;6.60;;;3.47;;
9364;SDS011;4722;49.340;9.800;2024-01-07T13:58:38;8.68;;;3.50;;
9364;SDS011;4722;49.340;9.800;2024-01-07T14:01:04;5.60;;;3.42;;
9364;SDS011;4722;49.340;9.800;2024-01-07T14:03:30;6.03;;;3.63;;
9364;SDS011;4722;49.340;9.800;2024-01-07T14:05:57;4.78;;;3.25;;
9364;SDS011;4722;49.340;9.800;2024-01-07T14:08:23;4.90;;;2.42;;
9364;SDS011;4722;49.340;9.800;2024-01-07T14:10:49;6.90;;;3.17;;
9364;SDS011;4722;49.340;9.800;2024-01-07T14:13:15;4.88;;;2.80;;
9364;SDS011;4722;49.340;9.800;2024-01-07T14:15:42;5.57;;;3.38;;
9364;SDS011;4722;49.340;9.800;2024-01-07T14:18:08;5.63;;;3.05;;
9364;SDS011;4722;49.340;9.800;2024-01-07T14:20:35;4.38;;;2.35;;
9364;SDS011;4722;49.340;9.800;2024-01-07T14:23:02;8.18;;;4.13;;
9364;SDS011;4722;49.340;9.800;2024-01-07T14:25:28;6.38;;;3.35;;
9364;SDS011;4722;49.340;9.800;2024-01-07T14:27:54;6.68;;;3.22;;
9364;SDS011;4722;49.340;9.800;2024-01-07T14:30:20;2.78;;;2.13;;
9364;SDS011;4722;49.340;9.800;2024-01-07T14:32:45;10.70;;;3.20;;
9364;SDS011;4722;49.340;9.800;2024-01-07T14:35:11;7.03;;;3.10;;
9364;SDS011;4722;49.340;9.800;2024-01-07T14:37:38;5.07;;;2.33;;
9364;SDS011;4722;49.340;9.800;2024-01-07T14:40:05;4.57;;;2.50;;
9364;SDS011;4722;49.340;9.800;2024-01-07T14:42:31;5.05;;;2.58;;
9364;SDS011;4722;49.340;9.800;2024-01-07T14:44:57;5.05;;;2.30;;
9364;SDS011;4722;49.340;9.800;2024-01-07T14:47:23;3.67;;;1.98;;
9364;SDS011;4722;49.340;9.800;2024-01-07T14:49:49;5.72;;;3.10;;
9364;SDS011;4722;49.340;9.800;2024-01-07T14:52:15;10.15;;;3.78;;
9364;SDS011;4722;49.340;9.800;2024-01-07T14:54:41;12.05;;;3.72;;
9364;SDS011;4722;49.340;9.800;2024-01-07T14:57:07;5.47;;;2.72;;
9364;SDS011;4722;49.340;9.800;2024-01-07T14:59:34;3.65;;;2.38;;
9364;SDS011;4722;49.340;9.800;2024-01-07T15:02:03;3.92;;;2.30;;
9364;SDS011;4722;49.340;9.800;2024-01-07T15:04:29;3.15;;;2.15;;
9364;SDS011;4722;49.340;9.800;2024-01-07T15:06:55;7.78;;;3.00;;
9364;SDS011;4722;49.340;9.800;2024-01-07T15:09:23;4.05;;;1.92;;
9364;SDS011;4722;49.340;9.800;2024-01-07T15:11:50;6.05;;;3.05;;
9364;SDS011;4722;49.340;9.800;2024-01-07T15:14:17;3.78;;;2.08;;